Time;durP1;ratioP1;P1;durP2;ratioP2;P2;SDS_P1;SDS_P2;PMS_P1;PMS_P2;Temp;Humidity;BMP_temperature;BMP_pressure;BME280_temperature;BME280_humidity;BME280_pressure;Samples;Min_cycle;Max_cycle;Signal;HPM_P1;HPM_P2
2022/05/27 00:01:33;;;;;;;6.37;4.60;;;;;;;19.04;nan;94484.25;4996938;28;20258;-69
2022/05/27 00:04:17;;;;;;;9.13;4.73;;;;;;;19.16;nan;94482.00;4980234;28;20578;-69
2022/05/27 00:07:01;;;;;;;7.17;4.70;;;;;;;19.15;nan;94489.06;5008565;28;20250;-70
2022/05/27 00:09:45;;;;;;;6.90;4.20;;;;;;;18.91;nan;94472.31;4988536;28;20591;-69
2022/05/27 00:12:28;;;;;;;6.33;4.80;;;;;;;18.88;nan;94479.28;4997245;28;20556;-68
2022/05/27 00:15:12;;;;;;;6.43;4.60;;;;;;;18.77;nan;94468.75;4997482;28;20203;-68
2022/05/27 00:17:56;;;;;;;6.10;3.37;;;;;;;18.74;nan;94463.63;5007764;28;20198;-69
2022/05/27 00:20:40;;;;;;;6.80;4.53;;;;;;;18.78;nan;94472.34;5006201;28;20233;-69
2022/05/27 00:23:25;;;;;;;5.23;4.40;;;;;;;18.57;nan;94467.78;5013873;28;20199;-69
2022/05/27 00:26:09;;;;;;;4.30;3.43;;;;;;;18.55;nan;94464.81;5001374;28;20620;-70
2022/05/27 00:28:53;;;;;;;5.33;4.30;;;;;;;18.48;nan;94454.50;5002236;28;20215;-71
2022/05/27 00:31:39;;;;;;;6.60;3.37;;;;;;;18.41;nan;94450.63;4997061;28;20270;-72
2022/05/27 00:34:23;;;;;;;4.37;2.70;;;;;;;18.31;nan;94452.97;4998806;28;20303;-71
2022/05/27 00:37:07;;;;;;;6.03;4.10;;;;;;;18.21;nan;94454.56;5010821;28;20198;-72
2022/05/27 00:39:52;;;;;;;8.33;4.50;;;;;;;18.25;nan;94443.41;5009481;28;20812;-72
2022/05/27 00:42:41;;;;;;;8.07;4.77;;;;;;;18.19;nan;94452.34;5012755;28;20287;-71
2022/05/27 00:45:26;;;;;;;6.03;4.37;;;;;;;18.11;nan;94446.97;5008700;28;20265;-72
2022/05/27 00:48:17;;;;;;;7.60;5.57;;;;;;;18.09;nan;94444.03;5009116;28;20202;-71
2022/05/27 00:51:04;;;;;;;6.43;5.60;;;;;;;18.12;nan;94445.63;5003421;28;20183;-71
2022/05/27 00:53:57;;;;;;;5.47;4.80;;;;;;;18.12;nan;94442.78;5011505;28;20263;-72
2022/05/27 00:56:45;;;;;;;9.07;4.87;;;;;;;18.01;nan;94443.63;5010935;28;20283;-72
2022/05/27 00:59:54;;;;;;;7.03;4.00;;;;;;;17.90;nan;94438.78;4990854;28;20287;-71
2022/05/27 01:05:44;;;;;;;8.23;4.90;;;;;;;17.89;nan;94437.31;5049843;23;20243;-72
2022/05/27 01:08:29;;;;;;;7.03;5.60;;;;;;;17.88;nan;94430.19;5002624;28;20275;-72
2022/05/27 01:11:29;;;;;;;8.20;6.07;;;;;;;17.90;nan;94438.06;5013739;28;20194;-72
2022/05/27 01:14:30;;;;;;;10.67;5.40;;;;;;;17.91;nan;94440.25;5009481;28;20234;-72
2022/05/27 01:17:23;;;;;;;8.30;5.60;;;;;;;17.94;nan;94439.00;5009021;28;20245;-72
2022/05/27 01:20:22;;;;;;;7.33;4.90;;;;;;;17.77;nan;94442.34;5013036;28;20238;-71
2022/05/27 01:23:44;;;;;;;6.90;4.83;;;;;;;17.70;nan;94441.31;5006864;28;20619;-73
2022/05/27 01:26:53;;;;;;;5.47;4.73;;;;;;;17.68;nan;94451.78;5005304;28;20198;-72
2022/05/27 01:29:46;;;;;;;5.37;4.83;;;;;;;17.61;nan;94444.31;4995217;28;20204;-72
2022/05/27 01:32:47;;;;;;;9.87;5.53;;;;;;;17.66;nan;94448.84;5000649;28;20190;-72
2022/05/27 01:35:38;;;;;;;8.43;5.20;;;;;;;17.64;nan;94445.91;5007884;28;20211;-73
2022/05/27 01:38:52;;;;;;;6.40;5.10;;;;;;;17.43;nan;94448.97;5014267;28;20206;-71
2022/05/27 01:41:58;;;;;;;7.50;6.30;;;;;;;17.43;nan;94438.38;4983812;28;20238;-71
2022/05/27 01:44:53;;;;;;;8.00;6.17;;;;;;;17.37;nan;94440.88;5013775;28;20230;-71
2022/05/27 01:48:03;;;;;;;10.33;6.00;;;;;;;17.43;nan;94434.81;5014131;28;20203;-70
2022/05/27 01:51:09;;;;;;;16.13;6.67;;;;;;;17.39;nan;94424.75;5005692;28;20211;-71
2022/05/27 01:54:01;;;;;;;8.70;7.30;;;;;;;17.47;nan;94432.91;4992862;28;20626;-71
2022/05/27 01:57:05;;;;;;;11.23;7.00;;;;;;;17.35;nan;94420.94;4997681;28;20203;-71
2022/05/27 02:00:10;;;;;;;12.87;8.27;;;;;;;17.42;nan;94424.84;4998991;28;20234;-71
2022/05/27 02:03:04;;;;;;;11.27;7.37;;;;;;;17.51;nan;94427.50;4994076;28;20199;-71
2022/05/27 02:06:05;;;;;;;12.93;7.37;;;;;;;17.57;nan;94424.25;4985277;28;20287;-72
2022/05/27 02:09:00;;;;;;;7.97;6.60;;;;;;;17.76;nan;94430.28;4973834;28;20202;-72
2022/05/27 02:11:48;;;;;;;8.90;5.80;;;;;;;17.81;nan;94431.22;4991792;28;20385;-72
2022/05/27 02:14:46;;;;;;;9.83;6.30;;;;;;;17.83;nan;94439.84;4988220;28;20238;-73
2022/05/27 02:17:37;;;;;;;8.07;6.50;;;;;;;17.94;nan;94426.91;4993526;28;20203;-73
2022/05/27 02:20:28;;;;;;;9.30;6.87;;;;;;;17.75;nan;94423.13;4990320;28;20384;-73
2022/05/27 02:23:19;;;;;;;9.13;6.60;;;;;;;17.78;nan;94427.53;4989603;28;20212;-73
2022/05/27 02:26:10;;;;;;;11.43;6.30;;;;;;;18.10;nan;94417.13;4988853;28;20203;-73
2022/05/27 02:29:09;;;;;;;8.60;6.60;;;;;;;18.06;nan;94431.13;4987042;28;20247;-73
2022/05/27 02:31:57;;;;;;;8.10;6.77;;;;;;;18.19;nan;94430.38;4978337;28;20192;-72
2022/05/27 02:35:08;;;;;;;12.17;7.73;;;;;;;18.43;nan;94427.28;4985587;28;20203;-71
2022/05/27 02:37:58;;;;;;;8.70;5.70;;;;;;;18.58;nan;94418.88;4973926;28;20272;-71
2022/05/27 02:40:56;;;;;;;8.67;7.13;;;;;;;18.62;nan;94424.03;4985398;28;20226;-73
2022/05/27 02:43:55;;;;;;;11.77;7.30;;;;;;;18.79;nan;94431.97;4985291;28;20296;-72
2022/05/27 02:46:51;;;;;;;11.17;8.13;;;;;;;18.91;nan;94415.50;4992272;28;20195;-72
2022/05/27 02:49:38;;;;;;;10.87;6.90;;;;;;;18.64;nan;94421.28;4993793;28;20204;-74
2022/05/27 02:52:28;;;;;;;9.30;7.30;;;;;;;18.66;nan;94412.88;4984180;28;20203;-72
2022/05/27 02:55:27;;;;;;;7.23;6.53;;;;;;;18.88;nan;94422.47;4987593;28;20279;-73
2022/05/27 02:58:11;;;;;;;11.60;7.00;;;;;;;18.88;nan;94427.41;4992031;28;20290;-73
2022/05/27 03:00:56;;;;;;;10.60;7.97;;;;;;;18.95;nan;94427.06;4993220;28;20274;-75
2022/05/27 03:03:41;;;;;;;12.37;8.07;;;;;;;19.02;nan;94424.50;4989348;28;20287;-72
2022/05/27 03:06:43;;;;;;;9.57;7.43;;;;;;;19.11;nan;94420.69;4984593;28;20223;-73
2022/05/27 03:09:54;;;;;;;8.80;6.63;;;;;;;19.30;nan;94431.53;4990571;28;20629;-74
2022/05/27 03:13:02;;;;;;;8.27;6.47;;;;;;;19.43;nan;94433.59;5004418;28;20231;-74
2022/05/27 03:15:50;;;;;;;8.27;6.40;;;;;;;19.77;nan;94438.03;4991297;28;20826;-74
2022/05/27 03:18:56;;;;;;;8.60;6.67;;;;;;;19.58;nan;94435.72;4991377;28;20216;-74
2022/05/27 03:21:48;;;;;;;7.77;5.70;;;;;;;19.58;nan;94438.56;4989248;28;20223;-72
2022/05/27 03:24:51;;;;;;;7.90;5.53;;;;;;;19.84;nan;94435.44;4988937;28;20727;-72
2022/05/27 03:27:43;;;;;;;6.30;5.67;;;;;;;20.14;nan;94440.38;4990854;28;20210;-72
2022/05/27 03:30:44;;;;;;;6.10;4.73;;;;;;;19.84;nan;94429.75;4992049;28;20203;-73
2022/05/27 03:34:06;;;;;;;7.57;4.33;;;;;;;20.15;nan;94435.41;4991361;28;20211;-73
2022/05/27 03:36:56;;;;;;;7.27;5.67;;;;;;;20.51;nan;94437.03;4969931;28;20611;-73
2022/05/27 03:39:40;;;;;;;5.13;4.13;;;;;;;20.00;nan;94442.59;4992827;28;20199;-73
2022/05/27 03:42:25;;;;;;;6.67;4.03;;;;;;;20.09;nan;94438.00;4989990;28;20246;-72
2022/05/27 03:45:13;;;;;;;6.13;3.60;;;;;;;19.90;nan;94444.25;4974587;28;20246;-73
2022/05/27 03:47:57;;;;;;;6.70;3.90;;;;;;;20.40;nan;94437.25;4999177;28;20246;-73
2022/05/27 03:50:42;;;;;;;3.37;2.93;;;;;;;20.41;nan;94447.97;4996977;28;20568;-73
2022/05/27 03:54:03;;;;;;;6.27;3.37;;;;;;;20.90;nan;94447.19;4997967;28;20219;-73
2022/05/27 03:56:36;;;;;;;3.87;2.83;;;;;;;20.71;nan;94442.09;5006104;28;20202;-74
2022/05/27 03:59:20;;;;;;;3.50;2.93;;;;;;;20.57;nan;94445.09;4998707;28;20675;-73
2022/05/27 04:02:05;;;;;;;3.43;2.70;;;;;;;21.12;nan;94445.22;4999412;28;20219;-72
2022/05/27 04:04:49;;;;;;;4.00;2.53;;;;;;;21.13;nan;94435.28;4984607;28;20226;-73
2022/05/27 04:07:35;;;;;;;4.43;2.10;;;;;;;21.26;nan;94440.13;4994208;28;20195;-75
2022/05/27 04:10:19;;;;;;;5.07;2.80;;;;;;;21.39;nan;94432.78;4988191;28;20191;-72
2022/05/27 04:13:03;;;;;;;5.33;2.10;;;;;;;20.91;nan;94437.25;4997157;28;20211;-72
2022/05/27 04:15:47;;;;;;;2.73;2.13;;;;;;;21.35;nan;94444.75;4999197;28;20655;-72
2022/05/27 04:18:32;;;;;;;4.50;1.90;;;;;;;20.90;nan;94447.91;4996982;28;20207;-72
2022/05/27 04:21:17;;;;;;;4.37;2.03;;;;;;;21.68;nan;94446.00;4989094;28;20316;-72
2022/05/27 04:24:01;;;;;;;3.73;1.90;;;;;;;21.67;nan;94438.81;4984045;28;20271;-73
2022/05/27 04:26:46;;;;;;;5.03;1.93;;;;;;;21.34;nan;94443.31;5000296;28;20283;-72
2022/05/27 04:29:30;;;;;;;4.83;1.97;;;;;;;21.86;nan;94443.84;5004261;28;20562;-73
2022/05/27 04:32:14;;;;;;;2.80;1.77;;;;;;;22.12;nan;94444.84;4993773;28;20195;-73
2022/05/27 04:34:58;;;;;;;4.23;1.70;;;;;;;22.06;nan;94438.91;4991262;28;20566;-73
2022/05/27 04:37:42;;;;;;;3.67;1.70;;;;;;;22.00;nan;94440.81;4996971;28;20577;-73
2022/05/27 04:40:26;;;;;;;4.10;1.67;;;;;;;22.06;nan;94444.63;4997294;28;20723;-72
2022/05/27 04:43:10;;;;;;;3.83;1.73;;;;;;;21.98;nan;94450.03;4991735;28;20669;-73
2022/05/27 04:45:54;;;;;;;5.07;1.53;;;;;;;22.06;nan;94444.63;5002579;28;20206;-72
2022/05/27 04:48:39;;;;;;;2.03;1.50;;;;;;;22.26;nan;94449.59;4999237;28;20218;-73
2022/05/27 04:51:23;;;;;;;1.77;1.20;;;;;;;22.21;nan;94448.00;4995760;28;20727;-74
2022/05/27 04:54:07;;;;;;;5.43;1.80;;;;;;;22.32;nan;94455.53;5001256;28;20219;-74
2022/05/27 04:56:53;;;;;;;2.07;1.60;;;;;;;22.21;nan;94442.28;5015792;28;20206;-74
2022/05/27 04:59:39;;;;;;;2.33;1.73;;;;;;;22.44;nan;94441.69;4998812;28;20207;-74
2022/05/27 05:02:24;;;;;;;4.43;1.90;;;;;;;22.74;nan;94436.31;4991223;28;20788;-74
2022/05/27 05:05:09;;;;;;;2.37;1.50;;;;;;;22.75;nan;94424.22;5000245;28;20280;-73
2022/05/27 05:08:03;;;;;;;1.83;1.20;;;;;;;22.35;nan;94428.50;5007574;28;20610;-73
2022/05/27 05:10:50;;;;;;;2.27;1.50;;;;;;;23.23;nan;94430.06;5015305;28;20195;-75
2022/05/27 05:13:35;;;;;;;3.23;1.67;;;;;;;22.57;nan;94432.16;4985210;28;20207;-74
2022/05/27 05:16:19;;;;;;;3.40;1.30;;;;;;;22.74;nan;94439.16;5014444;28;20219;-74
2022/05/27 05:19:03;;;;;;;1.20;1.10;;;;;;;22.30;nan;94432.59;4999778;28;20689;-74
2022/05/27 05:21:47;;;;;;;1.67;1.40;;;;;;;23.01;nan;94432.22;4989501;28;20269;-74
2022/05/27 05:24:31;;;;;;;1.60;1.00;;;;;;;23.39;nan;94437.03;5014531;28;20695;-75
2022/05/27 05:27:15;;;;;;;1.77;1.37;;;;;;;23.11;nan;94430.41;4996746;28;20207;-74
2022/05/27 05:29:59;;;;;;;2.60;1.20;;;;;;;23.28;nan;94425.94;5008384;28;20731;-74
2022/05/27 05:32:43;;;;;;;1.60;1.03;;;;;;;22.36;nan;94418.53;4987927;28;20820;-74
2022/05/27 05:35:28;;;;;;;1.13;1.03;;;;;;;22.48;nan;94422.56;4996654;28;20679;-73
2022/05/27 05:38:12;;;;;;;3.33;1.10;;;;;;;21.86;nan;94421.00;4996768;28;20756;-74
2022/05/27 05:40:57;;;;;;;3.10;1.47;;;;;;;22.34;nan;94432.78;5012834;28;20243;-74
2022/05/27 05:43:42;;;;;;;2.63;1.10;;;;;;;22.92;nan;94431.22;4997856;28;20230;-74
2022/05/27 05:46:26;;;;;;;1.30;1.20;;;;;;;22.78;nan;94422.88;5005092;28;20610;-74
2022/05/27 05:49:11;;;;;;;1.27;1.17;;;;;;;22.38;nan;94430.03;5010696;28;20238;-74
2022/05/27 05:51:58;;;;;;;1.97;1.20;;;;;;;22.09;nan;94420.47;5017543;28;20615;-73
2022/05/27 05:54:42;;;;;;;4.60;1.20;;;;;;;22.54;nan;94422.03;4982222;28;20214;-73
2022/05/27 05:57:27;;;;;;;4.63;1.30;;;;;;;22.40;nan;94418.72;5003941;28;20280;-73
2022/05/27 06:00:15;;;;;;;2.43;1.40;;;;;;;21.94;nan;94424.16;5013430;28;20269;-73
2022/05/27 06:02:59;;;;;;;2.67;1.47;;;;;;;21.96;nan;94426.41;4997472;28;20195;-73
2022/05/27 06:05:43;;;;;;;2.47;1.20;;;;;;;22.19;nan;94417.97;5007395;28;21190;-74
2022/05/27 06:08:27;;;;;;;4.33;1.40;;;;;;;22.02;nan;94413.09;4993758;28;20558;-73
2022/05/27 06:11:12;;;;;;;3.60;1.30;;;;;;;22.08;nan;94424.72;5011375;28;20199;-73
2022/05/27 06:13:56;;;;;;;3.87;1.93;;;;;;;23.08;nan;94428.16;5011713;28;20206;-73
2022/05/27 06:16:40;;;;;;;2.57;1.27;;;;;;;21.90;nan;94437.56;5009628;28;20254;-73
2022/05/27 06:19:24;;;;;;;2.10;1.30;;;;;;;22.76;nan;94442.09;4996582;28;20207;-73
2022/05/27 06:22:08;;;;;;;1.30;1.20;;;;;;;22.60;nan;94433.66;4994349;28;20235;-73
2022/05/27 06:24:52;;;;;;;2.80;1.67;;;;;;;22.75;nan;94429.94;5001502;28;21921;-73
2022/05/27 06:27:36;;;;;;;2.50;1.50;;;;;;;23.71;nan;94419.44;5007053;28;20338;-73
2022/05/27 06:36:27;;;;;;;2.93;1.33;;;;;;;23.07;nan;94409.53;5005143;28;20198;-73
2022/05/27 06:39:11;;;;;;;1.77;1.20;;;;;;;22.81;nan;94409.41;4990047;28;20251;-72
2022/05/27 06:41:56;;;;;;;2.23;1.30;;;;;;;23.40;nan;94409.16;4996772;28;20227;-72
2022/05/27 06:44:48;;;;;;;3.70;1.20;;;;;;;23.50;nan;94418.09;4992117;28;20291;-73
2022/05/27 06:47:34;;;;;;;2.93;1.60;;;;;;;23.70;nan;94412.97;5003456;28;20203;-72
2022/05/27 06:50:18;;;;;;;2.00;1.47;;;;;;;23.20;nan;94417.13;5009385;28;20275;-72
2022/05/27 06:53:03;;;;;;;2.37;1.60;;;;;;;23.38;nan;94417.69;5012946;28;20246;-72
2022/05/27 06:55:52;;;;;;;4.20;1.30;;;;;;;23.77;nan;94408.16;5003496;28;20338;-72
2022/05/27 06:58:37;;;;;;;2.20;1.33;;;;;;;23.86;nan;94412.00;5008133;28;20247;-73
2022/05/27 07:01:21;;;;;;;4.33;1.40;;;;;;;23.99;nan;94399.50;5002816;28;20226;-72
2022/05/27 07:04:05;;;;;;;4.53;1.37;;;;;;;24.13;nan;94417.09;5010258;28;20219;-72
2022/05/27 07:06:49;;;;;;;5.33;1.20;;;;;;;24.97;nan;94421.56;5005594;28;20234;-72
2022/05/27 07:09:37;;;;;;;3.40;1.00;;;;;;;24.67;nan;94414.28;5010953;28;20199;-73
2022/05/27 07:12:21;;;;;;;3.80;1.03;;;;;;;24.49;nan;94411.66;4992312;28;20195;-72
2022/05/27 07:15:07;;;;;;;1.17;1.00;;;;;;;25.47;nan;94411.97;5010496;28;20571;-72
2022/05/27 07:17:52;;;;;;;1.60;1.17;;;;;;;25.17;nan;94401.25;5007815;28;20234;-71
2022/05/27 07:20:36;;;;;;;1.97;1.23;;;;;;;24.94;nan;94385.63;5009839;28;20714;-72
2022/05/27 07:23:20;;;;;;;3.20;1.03;;;;;;;24.94;nan;94402.81;5008067;28;20281;-71
2022/05/27 07:26:05;;;;;;;1.30;0.90;;;;;;;25.05;nan;94395.22;5004418;28;20203;-71
2022/05/27 07:28:50;;;;;;;2.87;0.70;;;;;;;25.55;nan;94395.66;4994654;28;20273;-72
2022/05/27 07:31:36;;;;;;;2.80;0.90;;;;;;;25.56;nan;94390.66;4998823;28;20194;-72
2022/05/27 07:34:21;;;;;;;1.63;0.80;;;;;;;26.26;nan;94396.50;4992168;28;20683;-72
2022/05/27 07:37:05;;;;;;;1.42;0.88;;;;;;;25.27;nan;94398.63;4996444;28;20226;-71
2022/05/27 07:39:50;;;;;;;1.80;0.90;;;;;;;25.01;nan;94392.22;5011795;28;20203;-71
2022/05/27 07:42:34;;;;;;;3.90;0.83;;;;;;;25.74;nan;94402.56;5007475;28;20203;-72
2022/05/27 07:45:18;;;;;;;0.90;0.70;;;;;;;26.64;nan;94399.38;5011705;28;20283;-72
2022/05/27 07:48:03;;;;;;;1.45;0.65;;;;;;;26.68;nan;94394.44;4997050;28;20246;-71
2022/05/27 07:50:47;;;;;;;1.25;0.90;;;;;;;25.23;nan;94398.53;5001801;28;20199;-72
2022/05/27 07:53:32;;;;;;;2.88;0.95;;;;;;;26.31;nan;94386.53;4995548;28;20199;-72
2022/05/27 07:56:16;;;;;;;3.58;0.90;;;;;;;27.12;nan;94399.53;4999712;28;20283;-71
2022/05/27 07:59:01;;;;;;;1.48;0.80;;;;;;;28.07;nan;94380.78;5010828;28;20238;-72
2022/05/27 08:01:45;;;;;;;4.68;0.80;;;;;;;27.33;nan;94384.06;4995814;28;20219;-72
2022/05/27 08:04:28;;;;;;;3.38;0.90;;;;;;;28.01;nan;94369.19;5007282;28;20223;-71
2022/05/27 08:07:13;;;;;;;1.33;0.88;;;;;;;26.79;nan;94375.94;5010773;28;20582;-71
2022/05/27 08:09:58;;;;;;;1.73;0.80;;;;;;;27.38;nan;94371.19;4992185;28;20286;-72
2022/05/27 08:12:42;;;;;;;1.45;0.77;;;;;;;28.46;nan;94374.06;5003793;28;20611;-72
2022/05/27 08:15:27;;;;;;;3.80;0.73;;;;;;;28.64;nan;94372.84;5011442;28;20632;-72
2022/05/27 08:18:11;;;;;;;2.80;1.08;;;;;;;28.95;nan;94368.81;5011717;28;20622;-72
2022/05/27 08:20:55;;;;;;;1.15;0.80;;;;;;;29.35;nan;94369.19;4994460;28;20544;-72
2022/05/27 08:23:40;;;;;;;1.48;0.63;;;;;;;28.93;nan;94365.94;5011157;28;20222;-72
2022/05/27 08:26:24;;;;;;;2.10;0.88;;;;;;;28.64;nan;94381.47;5010164;28;20687;-72
2022/05/27 08:29:09;;;;;;;2.25;0.85;;;;;;;28.34;nan;94368.16;5011023;28;20726;-72
2022/05/27 08:31:54;;;;;;;2.22;0.88;;;;;;;29.11;nan;94380.50;5011008;28;20709;-72
2022/05/27 08:41:00;;;;;;;2.47;0.90;;;;;;;28.82;nan;94373.03;5014394;28;20282;-72
2022/05/27 08:43:53;;;;;;;0.63;0.63;;;;;;;29.27;nan;94359.69;5013121;28;20742;-72
2022/05/27 08:46:54;;;;;;;0.85;0.65;;;;;;;28.39;nan;94358.13;5014516;28;20207;-72
2022/05/27 08:49:42;;;;;;;3.10;1.13;;;;;;;28.39;nan;94361.00;5014658;28;20211;-71
2022/05/27 08:52:37;;;;;;;1.98;0.98;;;;;;;28.85;nan;94365.84;5011907;28;20203;-71
2022/05/27 09:02:03;;;;;;;3.50;0.93;;;;;;;29.84;nan;94351.44;4994602;28;20651;-72
2022/05/27 09:05:22;;;;;;;3.25;0.93;;;;;;;29.77;nan;94353.56;4988007;28;20232;-71
2022/05/27 09:08:16;;;;;;;2.53;0.95;;;;;;;29.60;nan;94352.75;4990407;28;20238;-71
2022/05/27 09:11:27;;;;;;;1.17;0.68;;;;;;;28.97;nan;94348.63;4993909;28;20255;-71
2022/05/27 09:14:20;;;;;;;1.20;0.50;;;;;;;29.44;nan;94349.03;4984961;28;20196;-71
2022/05/27 09:17:07;;;;;;;3.92;1.00;;;;;;;31.70;nan;94352.59;4994944;28;20695;-72
2022/05/27 09:20:18;;;;;;;1.95;0.90;;;;;;;30.55;nan;94361.88;4988235;28;20231;-71
2022/05/27 09:23:41;;;;;;;1.30;0.52;;;;;;;30.19;nan;94358.13;4992583;28;20207;-72
2022/05/27 09:26:33;;;;;;;2.58;0.82;;;;;;;30.11;nan;94356.66;4933383;28;20242;-70
2022/05/27 09:29:44;;;;;;;3.78;0.80;;;;;;;29.71;nan;94357.16;4994165;28;20701;-72
2022/05/27 09:32:44;;;;;;;4.50;0.80;;;;;;;30.22;nan;94348.03;4993835;28;20590;-72
2022/05/27 09:35:35;;;;;;;1.70;0.85;;;;;;;30.75;nan;94340.94;4989943;28;20842;-71
2022/05/27 09:38:27;;;;;;;1.20;0.60;;;;;;;31.26;nan;94330.16;4993056;28;20275;-72
2022/05/27 09:41:26;;;;;;;1.80;0.85;;;;;;;30.74;nan;94339.50;4993537;28;20230;-71
2022/05/27 09:44:34;;;;;;;2.78;0.70;;;;;;;31.20;nan;94332.31;4986850;28;20227;-72
2022/05/27 09:47:21;;;;;;;1.10;0.68;;;;;;;32.32;nan;94332.84;4996102;28;20695;-71
2022/05/27 09:50:18;;;;;;;2.33;0.80;;;;;;;31.22;nan;94346.81;4994046;28;20334;-71
2022/05/27 09:53:04;;;;;;;1.73;0.98;;;;;;;30.06;nan;94332.06;4981542;28;20224;-70
2022/05/27 09:56:08;;;;;;;2.40;0.77;;;;;;;31.11;nan;94330.91;4983823;28;20231;-71
2022/05/27 09:58:52;;;;;;;3.30;1.00;;;;;;;30.90;nan;94325.06;4993841;28;20602;-70
2022/05/27 10:01:38;;;;;;;1.48;0.60;;;;;;;31.15;nan;94336.69;4974015;28;20728;-70
2022/05/27 10:04:22;;;;;;;4.95;1.10;;;;;;;31.95;nan;94329.31;4976185;28;20216;-71
2022/05/27 10:07:06;;;;;;;1.40;0.73;;;;;;;31.66;nan;94329.38;5011383;28;20257;-71
2022/05/27 10:09:50;;;;;;;3.83;0.90;;;;;;;32.30;nan;94345.16;4979060;28;20571;-71
2022/05/27 10:12:34;;;;;;;3.00;0.68;;;;;;;32.34;nan;94321.91;4993020;28;20195;-71
2022/05/27 10:15:26;;;;;;;2.00;0.70;;;;;;;30.66;nan;94342.41;5010208;28;20190;-71
2022/05/27 10:18:22;;;;;;;2.70;0.93;;;;;;;33.57;nan;94322.56;4998160;28;20246;-71
2022/05/27 10:21:13;;;;;;;2.05;0.70;;;;;;;33.41;nan;94329.22;5012347;28;20297;-71
2022/05/27 10:24:15;;;;;;;4.05;0.77;;;;;;;33.70;nan;94318.78;4984107;28;20207;-71
2022/05/27 10:27:07;;;;;;;9.90;0.75;;;;;;;33.05;nan;94309.91;5011792;28;20370;-71
2022/05/27 10:29:58;;;;;;;1.58;0.70;;;;;;;33.50;nan;94318.25;5010835;28;20207;-71
2022/05/27 10:32:44;;;;;;;0.75;0.43;;;;;;;33.55;nan;94308.03;4997432;28;20275;-71
2022/05/27 10:35:32;;;;;;;1.02;0.60;;;;;;;34.16;nan;94310.28;4997676;28;20258;-71
2022/05/27 10:38:39;;;;;;;1.35;0.70;;;;;;;36.09;nan;94314.59;5012555;28;20206;-71
2022/05/27 10:41:51;;;;;;;2.65;0.60;;;;;;;34.93;nan;94318.03;4995940;28;20250;-71
2022/05/27 10:45:20;;;;;;;1.88;0.68;;;;;;;36.64;nan;94310.56;5012079;28;20257;-71
2022/05/27 10:48:23;;;;;;;1.42;0.70;;;;;;;36.32;nan;94303.19;4992679;28;20199;-71
2022/05/27 10:51:16;;;;;;;2.15;0.60;;;;;;;36.91;nan;94313.63;5011523;28;20218;-71
2022/05/27 10:54:19;;;;;;;1.45;0.50;;;;;;;34.66;nan;94306.72;5004103;28;20208;-71
2022/05/27 11:04:18;;;;;;;2.42;0.73;;;;;;;33.75;nan;94302.03;5012029;28;20222;-70
2022/05/27 11:07:24;;;;;;;0.85;0.50;;;;;;;33.14;nan;94282.25;5006687;28;20209;-71
2022/05/27 11:10:45;;;;;;;2.15;0.75;;;;;;;33.59;nan;94290.53;5011835;28;20631;-71
2022/05/27 11:17:25;;;;;;;2.58;0.70;;;;;;;32.34;nan;94290.00;5011863;28;20209;-71
2022/05/27 11:20:27;;;;;;;1.73;0.55;;;;;;;33.48;nan;94281.22;5007022;28;20229;-71
2022/05/27 11:23:27;;;;;;;2.92;0.63;;;;;;;33.95;nan;94286.53;5005271;28;20253;-70
2022/05/27 11:26:26;;;;;;;1.52;0.63;;;;;;;33.51;nan;94273.22;4991642;28;20250;-71
2022/05/27 11:29:47;;;;;;;7.68;0.70;;;;;;;34.55;nan;94276.34;5011012;28;20342;-71
2022/05/27 11:33:04;;;;;;;1.42;0.57;;;;;;;35.28;nan;94281.78;5007773;28;20667;-71
2022/05/27 11:36:10;;;;;;;0.80;0.50;;;;;;;34.01;nan;94281.38;5009184;28;20211;-70
2022/05/27 11:39:15;;;;;;;1.38;0.60;;;;;;;35.37;nan;94270.69;5007622;28;20574;-69
2022/05/27 11:42:14;;;;;;;1.10;0.52;;;;;;;35.16;nan;94269.59;5003970;28;20250;-70
2022/05/27 11:45:01;;;;;;;4.70;0.75;;;;;;;37.37;nan;94262.09;5010881;28;20210;-70
2022/05/27 11:48:05;;;;;;;3.33;0.55;;;;;;;36.46;nan;94259.09;5011775;28;20190;-70
2022/05/27 11:51:07;;;;;;;2.90;0.70;;;;;;;36.05;nan;94259.94;5005122;28;20202;-70
2022/05/27 11:54:16;;;;;;;2.72;0.68;;;;;;;35.83;nan;94259.66;5012331;28;20202;-70
2022/05/27 11:57:15;;;;;;;3.13;0.57;;;;;;;38.94;nan;94256.94;5010665;28;20577;-70
2022/05/27 12:00:12;;;;;;;1.27;0.68;;;;;;;36.68;nan;94241.09;4996232;28;20514;-70
2022/05/27 12:03:17;;;;;;;5.55;1.00;;;;;;;36.77;nan;94247.47;4991993;28;20207;-70
2022/05/27 12:06:10;;;;;;;1.98;0.60;;;;;;;35.90;nan;94229.63;5005125;28;20310;-71
2022/05/27 12:09:05;;;;;;;2.60;0.60;;;;;;;33.85;nan;94235.03;4999146;28;20349;-71
2022/05/27 12:11:55;;;;;;;1.55;0.60;;;;;;;36.05;nan;94222.00;4993005;28;20281;-70
2022/05/27 12:14:59;;;;;;;1.42;0.60;;;;;;;36.09;nan;94212.47;5014735;28;20202;-70
2022/05/27 12:17:48;;;;;;;5.30;0.50;;;;;;;36.99;nan;94219.91;5011818;28;20282;-70
2022/05/27 12:20:35;;;;;;;2.15;0.60;;;;;;;37.57;nan;94206.03;5014573;28;20287;-70
2022/05/27 12:23:26;;;;;;;2.05;0.73;;;;;;;36.76;nan;94210.97;4999436;28;20279;-70
2022/05/27 12:26:10;;;;;;;1.48;0.75;;;;;;;36.67;nan;94206.81;5013731;28;20686;-71
2022/05/27 12:28:58;;;;;;;1.48;0.65;;;;;;;35.58;nan;94206.91;5008241;28;20275;-71
2022/05/27 12:31:43;;;;;;;1.15;0.68;;;;;;;35.74;nan;94194.94;5014714;28;20188;-71
2022/05/27 12:34:27;;;;;;;1.70;0.90;;;;;;;37.40;nan;94202.09;5003690;28;20202;-70
2022/05/27 12:37:22;;;;;;;1.70;0.88;;;;;;;36.97;nan;94194.41;5013226;28;20301;-70
2022/05/27 12:40:23;;;;;;;1.80;0.52;;;;;;;37.15;nan;94196.16;5012593;28;20195;-71
2022/05/27 12:43:31;;;;;;;3.88;0.77;;;;;;;37.31;nan;94197.94;5011589;28;20773;-71
2022/05/27 12:46:32;;;;;;;2.65;0.68;;;;;;;37.58;nan;94187.00;5011189;28;20279;-70
2022/05/27 12:49:22;;;;;;;1.63;0.50;;;;;;;35.90;nan;94182.22;5014627;28;20265;-71
2022/05/27 12:52:29;;;;;;;1.05;0.50;;;;;;;37.90;nan;94180.19;5009604;28;20244;-71
2022/05/27 12:55:33;;;;;;;1.50;0.60;;;;;;;37.11;nan;94184.56;4991886;28;20211;-71
2022/05/27 13:01:22;;;;;;;0.75;0.45;;;;;;;39.21;nan;94169.53;5013776;28;20219;-71
2022/05/27 13:04:06;;;;;;;1.92;0.75;;;;;;;36.41;nan;94167.97;5008411;28;20270;-71
2022/05/27 13:07:04;;;;;;;1.25;0.50;;;;;;;34.43;nan;94175.38;4992392;28;20203;-71
2022/05/27 13:09:48;;;;;;;3.28;0.95;;;;;;;36.96;nan;94169.59;4994913;28;20196;-71
2022/05/27 13:12:42;;;;;;;7.15;5.03;;;;;;;36.61;nan;94166.75;4997275;28;20269;-71
2022/05/27 13:15:44;;;;;;;2.30;0.85;;;;;;;37.15;nan;94167.66;5014664;28;20283;-70
2022/05/27 13:18:37;;;;;;;1.98;0.60;;;;;;;35.72;nan;94173.88;5002247;28;20206;-71
2022/05/27 13:21:27;;;;;;;1.77;0.60;;;;;;;36.72;nan;94158.50;4995346;28;20315;-71
2022/05/27 13:24:11;;;;;;;2.40;0.63;;;;;;;36.53;nan;94166.25;5014069;28;20313;-71
2022/05/27 13:27:31;;;;;;;4.10;0.80;;;;;;;35.66;nan;94171.75;4996959;28;20572;-69
2022/05/27 13:30:15;;;;;;;4.53;0.65;;;;;;;37.02;nan;94154.81;4996333;28;20206;-70
2022/05/27 13:33:07;;;;;;;9.93;9.20;;;;;;;37.31;nan;94154.09;5008084;28;20676;-70
2022/05/27 13:35:52;;;;;;;5.47;0.90;;;;;;;36.62;nan;94123.69;5011952;28;20203;-71
2022/05/27 13:38:44;;;;;;;2.58;0.80;;;;;;;36.51;nan;94146.56;4997988;28;20218;-71
2022/05/27 13:41:36;;;;;;;3.30;0.50;;;;;;;36.68;nan;94124.28;5013350;28;20231;-71
2022/05/27 13:44:23;;;;;;;2.20;0.60;;;;;;;36.92;nan;94131.69;4996451;28;20242;-71
2022/05/27 13:47:13;;;;;;;1.63;0.55;;;;;;;36.63;nan;94139.72;5013022;28;20303;-72
2022/05/27 13:49:57;;;;;;;1.25;0.50;;;;;;;35.76;nan;94127.09;5013377;28;20226;-71
2022/05/27 13:52:42;;;;;;;8.40;0.80;;;;;;;40.06;nan;94121.03;4995441;28;20259;-71
2022/05/27 13:55:28;;;;;;;1.83;0.63;;;;;;;40.32;nan;94132.47;4996862;28;20421;-73
2022/05/27 13:58:15;;;;;;;3.53;1.23;;;;;;;39.76;nan;94125.78;5012181;28;20199;-69
2022/05/27 14:01:02;;;;;;;1.65;0.95;;;;;;;40.59;nan;94131.44;5012994;28;20265;-70
2022/05/27 14:04:22;;;;;;;3.17;1.30;;;;;;;39.33;nan;94144.91;5010664;28;20198;-69
2022/05/27 14:07:31;;;;;;;1.75;0.50;;;;;;;38.07;nan;94135.88;5007538;28;20575;-70
2022/05/27 14:10:27;;;;;;;2.60;0.98;;;;;;;38.49;nan;94122.84;4993296;28;20203;-71
2022/05/27 14:13:26;;;;;;;2.28;0.68;;;;;;;37.40;nan;94143.63;4992843;28;20897;-71
2022/05/27 14:16:10;;;;;;;2.15;0.60;;;;;;;37.20;nan;94116.38;4994992;28;20246;-71
2022/05/27 14:19:06;;;;;;;1.17;0.50;;;;;;;38.29;nan;94135.16;5012463;28;20202;-71
2022/05/27 14:25:25;;;;;;;6.88;0.65;;;;;;;35.12;nan;94107.19;5012458;28;20738;-69